sensor_id;sensor_type;location;lat;lon;timestamp;P1;durP1;ratioP1;P2;durP2;ratioP2
29320;SDS011;16323;51.130;6.612;2023-05-17T00:00:17;1.45;;;0.68;;
29320;SDS011;16323;51.130;6.612;2023-05-17T00:02:44;0.85;;;0.60;;
29320;SDS011;16323;51.130;6.612;2023-05-17T00:05:11;1.00;;;0.57;;
29320;SDS011;16323;51.130;6.612;2023-05-17T00:07:38;0.90;;;0.50;;
29320;SDS011;16323;51.130;6.612;2023-05-17T00:10:05;2.38;;;0.50;;
29320;SDS011;16323;51.130;6.612;2023-05-17T00:12:34;2.30;;;0.60;;
29320;SDS011;16323;51.130;6.612;2023-05-17T00:15:00;1.58;;;0.63;;
29320;SDS011;16323;51.130;6.612;2023-05-17T00:17:27;1.17;;;0.50;;
29320;SDS011;16323;51.130;6.612;2023-05-17T00:19:54;2.50;;;0.60;;
29320;SDS011;16323;51.130;6.612;2023-05-17T00:22:21;1.45;;;0.60;;
29320;SDS011;16323;51.130;6.612;2023-05-17T00:24:47;1.17;;;0.50;;
29320;SDS011;16323;51.130;6.612;2023-05-17T00:27:14;0.80;;;0.47;;
29320;SDS011;16323;51.130;6.612;2023-05-17T00:29:42;0.47;;;0.40;;
29320;SDS011;16323;51.130;6.612;2023-05-17T00:32:09;0.47;;;0.40;;
29320;SDS011;16323;51.130;6.612;2023-05-17T00:34:36;1.05;;;0.60;;
29320;SDS011;16323;51.130;6.612;2023-05-17T00:37:03;1.38;;;0.65;;
29320;SDS011;16323;51.130;6.612;2023-05-17T00:39:30;0.90;;;0.70;;
29320;SDS011;16323;51.130;6.612;2023-05-17T00:41:56;1.42;;;0.57;;
29320;SDS011;16323;51.130;6.612;2023-05-17T00:44:24;1.52;;;0.68;;
29320;SDS011;16323;51.130;6.612;2023-05-17T00:46:53;1.10;;;0.63;;
29320;SDS011;16323;51.130;6.612;2023-05-17T00:49:19;1.77;;;0.60;;
29320;SDS011;16323;51.130;6.612;2023-05-17T00:51:46;2.38;;;0.52;;
29320;SDS011;16323;51.130;6.612;2023-05-17T00:54:13;2.30;;;0.85;;
29320;SDS011;16323;51.130;6.612;2023-05-17T00:56:41;0.80;;;0.50;;
29320;SDS011;16323;51.130;6.612;2023-05-17T00:59:08;0.73;;;0.50;;
29320;SDS011;16323;51.130;6.612;2023-05-17T01:01:38;1.40;;;0.85;;
29320;SDS011;16323;51.130;6.612;2023-05-17T01:04:09;1.60;;;0.73;;
29320;SDS011;16323;51.130;6.612;2023-05-17T01:06:36;1.40;;;0.60;;
29320;SDS011;16323;51.130;6.612;2023-05-17T01:09:03;2.35;;;0.63;;
29320;SDS011;16323;51.130;6.612;2023-05-17T01:11:33;1.05;;;0.55;;
29320;SDS011;16323;51.130;6.612;2023-05-17T01:14:09;0.73;;;0.50;;
29320;SDS011;16323;51.130;6.612;2023-05-17T01:16:53;1.85;;;0.88;;
29320;SDS011;16323;51.130;6.612;2023-05-17T01:19:26;1.52;;;0.70;;
29320;SDS011;16323;51.130;6.612;2023-05-17T01:22:14;1.20;;;0.50;;
29320;SDS011;16323;51.130;6.612;2023-05-17T01:24:54;2.78;;;0.75;;
29320;SDS011;16323;51.130;6.612;2023-05-17T01:27:33;1.48;;;0.60;;
29320;SDS011;16323;51.130;6.612;2023-05-17T01:30:05;1.45;;;0.70;;
29320;SDS011;16323;51.130;6.612;2023-05-17T01:32:34;1.52;;;0.70;;
29320;SDS011;16323;51.130;6.612;2023-05-17T01:35:02;1.98;;;0.70;;
29320;SDS011;16323;51.130;6.612;2023-05-17T01:37:29;1.25;;;0.60;;
29320;SDS011;16323;51.130;6.612;2023-05-17T01:39:56;2.55;;;0.70;;
29320;SDS011;16323;51.130;6.612;2023-05-17T01:42:25;0.75;;;0.60;;
29320;SDS011;16323;51.130;6.612;2023-05-17T01:44:58;1.25;;;0.50;;
29320;SDS011;16323;51.130;6.612;2023-05-17T01:47:31;1.45;;;0.60;;
29320;SDS011;16323;51.130;6.612;2023-05-17T01:50:04;4.00;;;1.05;;
29320;SDS011;16323;51.130;6.612;2023-05-17T01:52:34;1.40;;;0.80;;
29320;SDS011;16323;51.130;6.612;2023-05-17T01:55:04;1.05;;;0.70;;
29320;SDS011;16323;51.130;6.612;2023-05-17T01:57:35;0.80;;;0.60;;
29320;SDS011;16323;51.130;6.612;2023-05-17T02:00:04;1.02;;;0.60;;
29320;SDS011;16323;51.130;6.612;2023-05-17T02:02:33;2.85;;;0.80;;
29320;SDS011;16323;51.130;6.612;2023-05-17T02:05:00;1.30;;;0.60;;
29320;SDS011;16323;51.130;6.612;2023-05-17T02:07:27;2.92;;;0.68;;
29320;SDS011;16323;51.130;6.612;2023-05-17T02:09:54;3.65;;;0.90;;
29320;SDS011;16323;51.130;6.612;2023-05-17T02:12:20;3.88;;;0.70;;
29320;SDS011;16323;51.130;6.612;2023-05-17T02:14:47;1.75;;;0.70;;
29320;SDS011;16323;51.130;6.612;2023-05-17T02:17:16;2.25;;;0.80;;
29320;SDS011;16323;51.130;6.612;2023-05-17T02:19:42;1.33;;;0.80;;
29320;SDS011;16323;51.130;6.612;2023-05-17T02:22:09;1.77;;;0.82;;
29320;SDS011;16323;51.130;6.612;2023-05-17T02:24:36;2.97;;;0.95;;
29320;SDS011;16323;51.130;6.612;2023-05-17T02:27:03;1.67;;;0.82;;
29320;SDS011;16323;51.130;6.612;2023-05-17T02:29:30;1.83;;;0.70;;
29320;SDS011;16323;51.130;6.612;2023-05-17T02:31:57;3.58;;;1.00;;
29320;SDS011;16323;51.130;6.612;2023-05-17T02:34:25;4.00;;;0.93;;
29320;SDS011;16323;51.130;6.612;2023-05-17T02:36:52;1.60;;;0.80;;
29320;SDS011;16323;51.130;6.612;2023-05-17T02:39:18;0.98;;;0.60;;
29320;SDS011;16323;51.130;6.612;2023-05-17T02:41:45;3.50;;;0.82;;
29320;SDS011;16323;51.130;6.612;2023-05-17T02:44:12;2.03;;;0.75;;
29320;SDS011;16323;51.130;6.612;2023-05-17T02:46:39;1.83;;;0.85;;
29320;SDS011;16323;51.130;6.612;2023-05-17T02:49:05;1.73;;;0.80;;
29320;SDS011;16323;51.130;6.612;2023-05-17T02:51:33;1.27;;;0.60;;
29320;SDS011;16323;51.130;6.612;2023-05-17T02:54:00;2.58;;;0.80;;
29320;SDS011;16323;51.130;6.612;2023-05-17T02:56:27;5.28;;;0.90;;
29320;SDS011;16323;51.130;6.612;2023-05-17T02:58:54;2.30;;;0.80;;
29320;SDS011;16323;51.130;6.612;2023-05-17T03:01:21;3.65;;;0.80;;
29320;SDS011;16323;51.130;6.612;2023-05-17T03:03:48;1.92;;;0.80;;
29320;SDS011;16323;51.130;6.612;2023-05-17T03:06:15;3.15;;;0.90;;
29320;SDS011;16323;51.130;6.612;2023-05-17T03:08:43;1.20;;;0.80;;
29320;SDS011;16323;51.130;6.612;2023-05-17T03:11:10;1.85;;;1.10;;
29320;SDS011;16323;51.130;6.612;2023-05-17T03:13:36;2.08;;;0.90;;
29320;SDS011;16323;51.130;6.612;2023-05-17T03:16:03;3.03;;;0.75;;
29320;SDS011;16323;51.130;6.612;2023-05-17T03:18:30;2.60;;;0.85;;
29320;SDS011;16323;51.130;6.612;2023-05-17T03:20:57;1.23;;;0.75;;
29320;SDS011;16323;51.130;6.612;2023-05-17T03:23:24;3.67;;;1.10;;
29320;SDS011;16323;51.130;6.612;2023-05-17T03:25:52;2.70;;;0.90;;
29320;SDS011;16323;51.130;6.612;2023-05-17T03:28:19;2.72;;;0.70;;
29320;SDS011;16323;51.130;6.612;2023-05-17T03:30:45;1.92;;;1.00;;
29320;SDS011;16323;51.130;6.612;2023-05-17T03:33:12;2.10;;;0.90;;
29320;SDS011;16323;51.130;6.612;2023-05-17T03:35:39;3.40;;;0.98;;
29320;SDS011;16323;51.130;6.612;2023-05-17T03:38:06;7.78;;;1.38;;
29320;SDS011;16323;51.130;6.612;2023-05-17T03:40:33;2.95;;;1.10;;
29320;SDS011;16323;51.130;6.612;2023-05-17T03:43:01;1.50;;;0.90;;
29320;SDS011;16323;51.130;6.612;2023-05-17T03:45:28;2.85;;;1.10;;
29320;SDS011;16323;51.130;6.612;2023-05-17T03:47:55;3.28;;;1.30;;
29320;SDS011;16323;51.130;6.612;2023-05-17T03:50:22;1.77;;;0.95;;
29320;SDS011;16323;51.130;6.612;2023-05-17T03:52:48;3.65;;;1.10;;
29320;SDS011;16323;51.130;6.612;2023-05-17T03:55:15;4.03;;;1.15;;
29320;SDS011;16323;51.130;6.612;2023-05-17T03:57:42;1.98;;;0.93;;
29320;SDS011;16323;51.130;6.612;2023-05-17T04:00:11;4.22;;;1.08;;
29320;SDS011;16323;51.130;6.612;2023-05-17T04:02:45;5.38;;;1.00;;
29320;SDS011;16323;51.130;6.612;2023-05-17T04:05:11;3.00;;;1.15;;
29320;SDS011;16323;51.130;6.612;2023-05-17T04:07:38;1.77;;;1.02;;
29320;SDS011;16323;51.130;6.612;2023-05-17T04:10:05;3.40;;;1.10;;
29320;SDS011;16323;51.130;6.612;2023-05-17T04:12:32;3.60;;;1.00;;
29320;SDS011;16323;51.130;6.612;2023-05-17T04:14:59;3.35;;;1.20;;
29320;SDS011;16323;51.130;6.612;2023-05-17T04:17:27;3.72;;;1.25;;
29320;SDS011;16323;51.130;6.612;2023-05-17T04:19:54;1.80;;;0.90;;
29320;SDS011;16323;51.130;6.612;2023-05-17T04:22:21;2.97;;;1.13;;
29320;SDS011;16323;51.130;6.612;2023-05-17T04:24:48;2.28;;;0.90;;
29320;SDS011;16323;51.130;6.612;2023-05-17T04:27:15;1.27;;;0.90;;
29320;SDS011;16323;51.130;6.612;2023-05-17T04:29:42;2.78;;;0.98;;
29320;SDS011;16323;51.130;6.612;2023-05-17T04:32:08;2.42;;;1.13;;
29320;SDS011;16323;51.130;6.612;2023-05-17T04:34:36;1.58;;;1.10;;
29320;SDS011;16323;51.130;6.612;2023-05-17T04:37:03;2.28;;;1.02;;
29320;SDS011;16323;51.130;6.612;2023-05-17T04:39:30;3.40;;;1.10;;
29320;SDS011;16323;51.130;6.612;2023-05-17T04:41:57;1.52;;;1.05;;
29320;SDS011;16323;51.130;6.612;2023-05-17T04:44:24;2.97;;;1.15;;
29320;SDS011;16323;51.130;6.612;2023-05-17T04:46:51;5.63;;;1.08;;
29320;SDS011;16323;51.130;6.612;2023-05-17T04:49:18;4.90;;;1.10;;
29320;SDS011;16323;51.130;6.612;2023-05-17T04:51:46;3.78;;;1.10;;
29320;SDS011;16323;51.130;6.612;2023-05-17T04:54:13;3.95;;;1.20;;
29320;SDS011;16323;51.130;6.612;2023-05-17T04:56:39;3.00;;;1.30;;
29320;SDS011;16323;51.130;6.612;2023-05-17T04:59:06;2.05;;;1.00;;
29320;SDS011;16323;51.130;6.612;2023-05-17T05:01:33;1.88;;;1.17;;
29320;SDS011;16323;51.130;6.612;2023-05-17T05:04:00;2.72;;;1.10;;
29320;SDS011;16323;51.130;6.612;2023-05-17T05:06:30;2.67;;;1.13;;
29320;SDS011;16323;51.130;6.612;2023-05-17T05:08:59;3.75;;;1.10;;
29320;SDS011;16323;51.130;6.612;2023-05-17T05:11:25;2.78;;;1.10;;
29320;SDS011;16323;51.130;6.612;2023-05-17T05:13:52;2.90;;;1.13;;
29320;SDS011;16323;51.130;6.612;2023-05-17T05:16:19;4.47;;;1.60;;
29320;SDS011;16323;51.130;6.612;2023-05-17T05:18:46;3.22;;;1.27;;
29320;SDS011;16323;51.130;6.612;2023-05-17T05:21:13;1.67;;;1.00;;
29320;SDS011;16323;51.130;6.612;2023-05-17T05:23:39;4.60;;;1.05;;
29320;SDS011;16323;51.130;6.612;2023-05-17T05:26:08;4.20;;;1.17;;
29320;SDS011;16323;51.130;6.612;2023-05-17T05:28:34;2.42;;;1.17;;
29320;SDS011;16323;51.130;6.612;2023-05-17T05:31:01;2.15;;;1.13;;
29320;SDS011;16323;51.130;6.612;2023-05-17T05:33:28;3.67;;;1.20;;
29320;SDS011;16323;51.130;6.612;2023-05-17T05:35:55;5.13;;;1.17;;
29320;SDS011;16323;51.130;6.612;2023-05-17T05:38:22;4.05;;;1.50;;
29320;SDS011;16323;51.130;6.612;2023-05-17T05:40:49;3.65;;;1.30;;
29320;SDS011;16323;51.130;6.612;2023-05-17T05:43:17;4.15;;;1.58;;
29320;SDS011;16323;51.130;6.612;2023-05-17T05:45:44;5.55;;;1.40;;
29320;SDS011;16323;51.130;6.612;2023-05-17T05:48:11;3.22;;;1.05;;
29320;SDS011;16323;51.130;6.612;2023-05-17T05:50:38;2.65;;;1.10;;
29320;SDS011;16323;51.130;6.612;2023-05-17T05:53:06;3.45;;;1.45;;
29320;SDS011;16323;51.130;6.612;2023-05-17T05:55:33;5.30;;;1.20;;
29320;SDS011;16323;51.130;6.612;2023-05-17T05:58:00;2.60;;;1.17;;
29320;SDS011;16323;51.130;6.612;2023-05-17T06:00:28;5.40;;;1.40;;
29320;SDS011;16323;51.130;6.612;2023-05-17T06:02:55;4.00;;;1.50;;
29320;SDS011;16323;51.130;6.612;2023-05-17T06:05:21;1.88;;;1.20;;
29320;SDS011;16323;51.130;6.612;2023-05-17T06:07:48;3.80;;;1.50;;
29320;SDS011;16323;51.130;6.612;2023-05-17T06:10:15;5.63;;;1.73;;
29320;SDS011;16323;51.130;6.612;2023-05-17T06:12:42;3.63;;;1.60;;
29320;SDS011;16323;51.130;6.612;2023-05-17T06:15:09;4.30;;;1.35;;
29320;SDS011;16323;51.130;6.612;2023-05-17T06:17:37;4.88;;;1.60;;
29320;SDS011;16323;51.130;6.612;2023-05-17T06:20:05;4.78;;;1.67;;
29320;SDS011;16323;51.130;6.612;2023-05-17T06:22:32;3.53;;;1.60;;
29320;SDS011;16323;51.130;6.612;2023-05-17T06:24:59;4.90;;;1.60;;
29320;SDS011;16323;51.130;6.612;2023-05-17T06:27:26;3.78;;;1.60;;
29320;SDS011;16323;51.130;6.612;2023-05-17T06:29:53;4.32;;;1.23;;
29320;SDS011;16323;51.130;6.612;2023-05-17T06:32:19;2.95;;;1.50;;
29320;SDS011;16323;51.130;6.612;2023-05-17T06:34:47;3.92;;;1.58;;
29320;SDS011;16323;51.130;6.612;2023-05-17T06:37:14;3.97;;;1.40;;
29320;SDS011;16323;51.130;6.612;2023-05-17T06:39:41;4.18;;;1.63;;
29320;SDS011;16323;51.130;6.612;2023-05-17T06:42:08;3.42;;;1.30;;
29320;SDS011;16323;51.130;6.612;2023-05-17T06:44:34;3.72;;;1.30;;
29320;SDS011;16323;51.130;6.612;2023-05-17T06:47:01;4.75;;;1.50;;
29320;SDS011;16323;51.130;6.612;2023-05-17T06:49:28;3.85;;;1.27;;
29320;SDS011;16323;51.130;6.612;2023-05-17T06:51:56;4.50;;;1.50;;
29320;SDS011;16323;51.130;6.612;2023-05-17T06:54:27;4.35;;;1.30;;
29320;SDS011;16323;51.130;6.612;2023-05-17T06:56:54;3.60;;;1.40;;
29320;SDS011;16323;51.130;6.612;2023-05-17T06:59:24;4.18;;;1.23;;
29320;SDS011;16323;51.130;6.612;2023-05-17T07:01:51;4.97;;;1.65;;
29320;SDS011;16323;51.130;6.612;2023-05-17T07:04:18;4.30;;;1.38;;
29320;SDS011;16323;51.130;6.612;2023-05-17T07:06:45;5.20;;;1.90;;
29320;SDS011;16323;51.130;6.612;2023-05-17T07:09:13;5.93;;;2.15;;
29320;SDS011;16323;51.130;6.612;2023-05-17T07:11:41;5.45;;;1.73;;
29320;SDS011;16323;51.130;6.612;2023-05-17T07:14:08;5.07;;;1.55;;
29320;SDS011;16323;51.130;6.612;2023-05-17T07:16:34;3.53;;;1.55;;
29320;SDS011;16323;51.130;6.612;2023-05-17T07:19:01;3.42;;;1.45;;
29320;SDS011;16323;51.130;6.612;2023-05-17T07:21:28;3.55;;;1.30;;
29320;SDS011;16323;51.130;6.612;2023-05-17T07:23:55;4.32;;;1.30;;
29320;SDS011;16323;51.130;6.612;2023-05-17T07:26:23;4.53;;;1.20;;
29320;SDS011;16323;51.130;6.612;2023-05-17T07:28:50;3.90;;;1.13;;
29320;SDS011;16323;51.130;6.612;2023-05-17T07:31:17;4.05;;;1.27;;
29320;SDS011;16323;51.130;6.612;2023-05-17T07:33:43;4.07;;;1.20;;
29320;SDS011;16323;51.130;6.612;2023-05-17T07:36:10;4.55;;;1.50;;
29320;SDS011;16323;51.130;6.612;2023-05-17T07:38:37;3.97;;;1.42;;
29320;SDS011;16323;51.130;6.612;2023-05-17T07:41:04;3.70;;;1.40;;
29320;SDS011;16323;51.130;6.612;2023-05-17T07:43:34;4.70;;;1.20;;
29320;SDS011;16323;51.130;6.612;2023-05-17T07:46:02;4.43;;;1.05;;
29320;SDS011;16323;51.130;6.612;2023-05-17T07:48:29;2.97;;;1.35;;
29320;SDS011;16323;51.130;6.612;2023-05-17T07:50:56;4.03;;;1.38;;
29320;SDS011;16323;51.130;6.612;2023-05-17T07:53:23;3.28;;;1.10;;
29320;SDS011;16323;51.130;6.612;2023-05-17T07:55:50;4.25;;;1.00;;
29320;SDS011;16323;51.130;6.612;2023-05-17T07:58:17;3.80;;;1.23;;
29320;SDS011;16323;51.130;6.612;2023-05-17T08:00:45;4.13;;;1.13;;
29320;SDS011;16323;51.130;6.612;2023-05-17T08:03:13;2.90;;;1.10;;
29320;SDS011;16323;51.130;6.612;2023-05-17T08:05:40;5.00;;;1.17;;
29320;SDS011;16323;51.130;6.612;2023-05-17T08:08:06;3.13;;;1.00;;
29320;SDS011;16323;51.130;6.612;2023-05-17T08:10:33;5.03;;;0.95;;
29320;SDS011;16323;51.130;6.612;2023-05-17T08:13:01;3.40;;;1.10;;
29320;SDS011;16323;51.130;6.612;2023-05-17T08:15:28;2.40;;;1.20;;
29320;SDS011;16323;51.130;6.612;2023-05-17T08:17:56;2.53;;;1.00;;
29320;SDS011;16323;51.130;6.612;2023-05-17T08:20:23;2.38;;;1.00;;
29320;SDS011;16323;51.130;6.612;2023-05-17T08:22:50;4.88;;;0.90;;
29320;SDS011;16323;51.130;6.612;2023-05-17T08:25:17;3.83;;;1.10;;
29320;SDS011;16323;51.130;6.612;2023-05-17T08:27:45;3.28;;;0.80;;
29320;SDS011;16323;51.130;6.612;2023-05-17T08:30:11;4.20;;;1.23;;
29320;SDS011;16323;51.130;6.612;2023-05-17T08:32:39;3.28;;;1.20;;
29320;SDS011;16323;51.130;6.612;2023-05-17T08:35:07;2.88;;;1.25;;
29320;SDS011;16323;51.130;6.612;2023-05-17T08:37:34;3.28;;;1.10;;
29320;SDS011;16323;51.130;6.612;2023-05-17T08:40:01;3.08;;;1.27;;
29320;SDS011;16323;51.130;6.612;2023-05-17T08:42:29;3.33;;;0.95;;
29320;SDS011;16323;51.130;6.612;2023-05-17T08:44:56;3.35;;;1.00;;
29320;SDS011;16323;51.130;6.612;2023-05-17T08:47:23;4.28;;;1.30;;
29320;SDS011;16323;51.130;6.612;2023-05-17T08:49:54;2.47;;;0.80;;
29320;SDS011;16323;51.130;6.612;2023-05-17T08:52:27;1.73;;;0.63;;
29320;SDS011;16323;51.130;6.612;2023-05-17T08:54:56;2.28;;;0.88;;
29320;SDS011;16323;51.130;6.612;2023-05-17T08:57:25;4.80;;;1.10;;
29320;SDS011;16323;51.130;6.612;2023-05-17T08:59:53;2.70;;;0.77;;
29320;SDS011;16323;51.130;6.612;2023-05-17T09:02:21;3.22;;;1.13;;
29320;SDS011;16323;51.130;6.612;2023-05-17T09:04:49;4.18;;;1.10;;
29320;SDS011;16323;51.130;6.612;2023-05-17T09:07:19;2.50;;;0.82;;
29320;SDS011;16323;51.130;6.612;2023-05-17T09:09:48;2.33;;;0.95;;
29320;SDS011;16323;51.130;6.612;2023-05-17T09:12:17;2.40;;;0.80;;
29320;SDS011;16323;51.130;6.612;2023-05-17T09:14:44;2.60;;;0.95;;
29320;SDS011;16323;51.130;6.612;2023-05-17T09:17:12;3.75;;;1.05;;
29320;SDS011;16323;51.130;6.612;2023-05-17T09:19:41;4.18;;;1.08;;
29320;SDS011;16323;51.130;6.612;2023-05-17T09:22:10;3.38;;;1.15;;
29320;SDS011;16323;51.130;6.612;2023-05-17T09:24:39;3.53;;;1.10;;
29320;SDS011;16323;51.130;6.612;2023-05-17T09:27:08;3.05;;;1.10;;
29320;SDS011;16323;51.130;6.612;2023-05-17T09:29:39;3.08;;;0.90;;
29320;SDS011;16323;51.130;6.612;2023-05-17T09:32:12;3.13;;;1.13;;
29320;SDS011;16323;51.130;6.612;2023-05-17T09:34:40;3.45;;;0.90;;
29320;SDS011;16323;51.130;6.612;2023-05-17T09:37:13;3.17;;;0.75;;
29320;SDS011;16323;51.130;6.612;2023-05-17T09:39:41;3.33;;;1.20;;
29320;SDS011;16323;51.130;6.612;2023-05-17T09:42:11;2.35;;;0.80;;
29320;SDS011;16323;51.130;6.612;2023-05-17T09:44:45;4.55;;;0.70;;
29320;SDS011;16323;51.130;6.612;2023-05-17T09:47:23;2.40;;;0.77;;
29320;SDS011;16323;51.130;6.612;2023-05-17T09:49:51;3.78;;;0.93;;
29320;SDS011;16323;51.130;6.612;2023-05-17T09:52:18;3.10;;;0.90;;
29320;SDS011;16323;51.130;6.612;2023-05-17T09:54:52;3.63;;;0.93;;
29320;SDS011;16323;51.130;6.612;2023-05-17T09:57:21;4.88;;;1.00;;
29320;SDS011;16323;51.130;6.612;2023-05-17T09:59:49;3.00;;;1.00;;
29320;SDS011;16323;51.130;6.612;2023-05-17T10:02:20;4.88;;;1.08;;
29320;SDS011;16323;51.130;6.612;2023-05-17T10:04:48;2.97;;;0.80;;
29320;SDS011;16323;51.130;6.612;2023-05-17T10:07:19;3.92;;;1.00;;
29320;SDS011;16323;51.130;6.612;2023-05-17T10:09:46;2.50;;;0.70;;
29320;SDS011;16323;51.130;6.612;2023-05-17T10:12:15;3.40;;;1.00;;
29320;SDS011;16323;51.130;6.612;2023-05-17T10:14:44;3.08;;;0.90;;
29320;SDS011;16323;51.130;6.612;2023-05-17T10:17:12;2.63;;;0.88;;
29320;SDS011;16323;51.130;6.612;2023-05-17T10:19:39;3.47;;;0.88;;
29320;SDS011;16323;51.130;6.612;2023-05-17T10:22:07;3.60;;;0.82;;
29320;SDS011;16323;51.130;6.612;2023-05-17T10:24:35;1.42;;;0.70;;
29320;SDS011;16323;51.130;6.612;2023-05-17T10:27:03;3.15;;;0.80;;
29320;SDS011;16323;51.130;6.612;2023-05-17T10:29:32;1.40;;;0.60;;
29320;SDS011;16323;51.130;6.612;2023-05-17T10:32:02;3.05;;;1.33;;
29320;SDS011;16323;51.130;6.612;2023-05-17T10:34:32;4.30;;;1.05;;
29320;SDS011;16323;51.130;6.612;2023-05-17T10:37:00;3.70;;;1.08;;
29320;SDS011;16323;51.130;6.612;2023-05-17T10:39:28;2.92;;;0.90;;
29320;SDS011;16323;51.130;6.612;2023-05-17T10:41:58;3.00;;;1.00;;
29320;SDS011;16323;51.130;6.612;2023-05-17T10:44:28;2.70;;;0.80;;
29320;SDS011;16323;51.130;6.612;2023-05-17T10:46:56;2.97;;;0.75;;
29320;SDS011;16323;51.130;6.612;2023-05-17T10:49:28;2.35;;;0.98;;
29320;SDS011;16323;51.130;6.612;2023-05-17T10:51:56;1.80;;;0.80;;
29320;SDS011;16323;51.130;6.612;2023-05-17T10:54:32;3.85;;;0.90;;
29320;SDS011;16323;51.130;6.612;2023-05-17T10:57:01;3.03;;;0.80;;
29320;SDS011;16323;51.130;6.612;2023-05-17T10:59:30;3.80;;;1.10;;
29320;SDS011;16323;51.130;6.612;2023-05-17T11:01:59;2.20;;;0.75;;
29320;SDS011;16323;51.130;6.612;2023-05-17T11:04:32;3.75;;;0.77;;
29320;SDS011;16323;51.130;6.612;2023-05-17T11:09:52;3.85;;;0.80;;
29320;SDS011;16323;51.130;6.612;2023-05-17T11:12:29;2.88;;;0.77;;
29320;SDS011;16323;51.130;6.612;2023-05-17T11:14:58;2.35;;;0.75;;
29320;SDS011;16323;51.130;6.612;2023-05-17T11:17:26;1.90;;;0.70;;
29320;SDS011;16323;51.130;6.612;2023-05-17T11:20:05;4.93;;;0.90;;
29320;SDS011;16323;51.130;6.612;2023-05-17T11:22:35;2.58;;;0.80;;
29320;SDS011;16323;51.130;6.612;2023-05-17T11:25:05;2.08;;;0.70;;
29320;SDS011;16323;51.130;6.612;2023-05-17T11:27:37;3.33;;;0.85;;
29320;SDS011;16323;51.130;6.612;2023-05-17T11:30:15;2.28;;;0.57;;
29320;SDS011;16323;51.130;6.612;2023-05-17T11:32:48;1.63;;;0.73;;
29320;SDS011;16323;51.130;6.612;2023-05-17T11:35:18;1.00;;;0.65;;
29320;SDS011;16323;51.130;6.612;2023-05-17T11:37:50;1.80;;;0.57;;
29320;SDS011;16323;51.130;6.612;2023-05-17T11:40:23;2.53;;;0.85;;
29320;SDS011;16323;51.130;6.612;2023-05-17T11:43:08;3.08;;;0.90;;
29320;SDS011;16323;51.130;6.612;2023-05-17T11:45:42;2.83;;;0.60;;
29320;SDS011;16323;51.130;6.612;2023-05-17T11:48:13;2.70;;;0.80;;
29320;SDS011;16323;51.130;6.612;2023-05-17T11:50:42;2.78;;;0.65;;
29320;SDS011;16323;51.130;6.612;2023-05-17T11:53:10;1.85;;;0.80;;
29320;SDS011;16323;51.130;6.612;2023-05-17T11:55:38;3.17;;;0.60;;
29320;SDS011;16323;51.130;6.612;2023-05-17T11:58:06;1.17;;;0.60;;
29320;SDS011;16323;51.130;6.612;2023-05-17T12:00:34;1.48;;;0.63;;
29320;SDS011;16323;51.130;6.612;2023-05-17T12:03:15;3.53;;;0.93;;
29320;SDS011;16323;51.130;6.612;2023-05-17T12:05:44;2.58;;;0.88;;
29320;SDS011;16323;51.130;6.612;2023-05-17T12:08:13;2.72;;;0.73;;
29320;SDS011;16323;51.130;6.612;2023-05-17T12:10:43;1.77;;;0.75;;
29320;SDS011;16323;51.130;6.612;2023-05-17T12:13:11;1.17;;;0.52;;
29320;SDS011;16323;51.130;6.612;2023-05-17T12:15:38;2.55;;;0.73;;
29320;SDS011;16323;51.130;6.612;2023-05-17T12:18:06;1.63;;;0.50;;
29320;SDS011;16323;51.130;6.612;2023-05-17T12:20:33;3.03;;;0.70;;
29320;SDS011;16323;51.130;6.612;2023-05-17T12:23:03;3.65;;;0.73;;
29320;SDS011;16323;51.130;6.612;2023-05-17T12:25:30;2.33;;;0.50;;
29320;SDS011;16323;51.130;6.612;2023-05-17T12:30:42;1.90;;;0.57;;
29320;SDS011;16323;51.130;6.612;2023-05-17T12:33:10;3.15;;;0.82;;
29320;SDS011;16323;51.130;6.612;2023-05-17T12:35:36;2.15;;;0.88;;
29320;SDS011;16323;51.130;6.612;2023-05-17T12:38:05;2.47;;;0.80;;
29320;SDS011;16323;51.130;6.612;2023-05-17T12:40:32;1.00;;;0.50;;
29320;SDS011;16323;51.130;6.612;2023-05-17T12:43:01;3.88;;;0.85;;
29320;SDS011;16323;51.130;6.612;2023-05-17T12:45:28;2.13;;;0.60;;
29320;SDS011;16323;51.130;6.612;2023-05-17T12:47:55;1.05;;;0.50;;
29320;SDS011;16323;51.130;6.612;2023-05-17T12:50:25;2.63;;;0.68;;
29320;SDS011;16323;51.130;6.612;2023-05-17T12:52:54;1.75;;;0.70;;
29320;SDS011;16323;51.130;6.612;2023-05-17T12:55:22;3.00;;;0.68;;
29320;SDS011;16323;51.130;6.612;2023-05-17T12:57:50;1.38;;;0.70;;
29320;SDS011;16323;51.130;6.612;2023-05-17T13:00:17;1.73;;;0.50;;
29320;SDS011;16323;51.130;6.612;2023-05-17T13:02:45;1.80;;;0.65;;
29320;SDS011;16323;51.130;6.612;2023-05-17T13:05:13;1.00;;;0.50;;
29320;SDS011;16323;51.130;6.612;2023-05-17T13:07:40;2.17;;;0.75;;
29320;SDS011;16323;51.130;6.612;2023-05-17T13:10:18;1.88;;;0.40;;
29320;SDS011;16323;51.130;6.612;2023-05-17T13:12:54;0.88;;;0.50;;
29320;SDS011;16323;51.130;6.612;2023-05-17T13:15:25;3.80;;;0.80;;
29320;SDS011;16323;51.130;6.612;2023-05-17T13:17:53;2.63;;;0.60;;
29320;SDS011;16323;51.130;6.612;2023-05-17T13:20:20;1.38;;;0.60;;
29320;SDS011;16323;51.130;6.612;2023-05-17T13:22:47;2.13;;;0.70;;
29320;SDS011;16323;51.130;6.612;2023-05-17T13:25:15;2.20;;;0.80;;
29320;SDS011;16323;51.130;6.612;2023-05-17T13:27:42;2.20;;;0.40;;
29320;SDS011;16323;51.130;6.612;2023-05-17T13:30:14;1.30;;;0.60;;
29320;SDS011;16323;51.130;6.612;2023-05-17T13:32:41;3.03;;;0.70;;
29320;SDS011;16323;51.130;6.612;2023-05-17T13:35:08;2.58;;;0.50;;
29320;SDS011;16323;51.130;6.612;2023-05-17T13:37:35;1.35;;;0.50;;
29320;SDS011;16323;51.130;6.612;2023-05-17T13:40:02;1.23;;;0.47;;
29320;SDS011;16323;51.130;6.612;2023-05-17T13:42:29;0.95;;;0.45;;
29320;SDS011;16323;51.130;6.612;2023-05-17T13:44:57;2.03;;;0.60;;
29320;SDS011;16323;51.130;6.612;2023-05-17T13:47:26;1.30;;;0.43;;
29320;SDS011;16323;51.130;6.612;2023-05-17T13:49:56;1.20;;;0.60;;
29320;SDS011;16323;51.130;6.612;2023-05-17T13:52:22;2.50;;;0.60;;
29320;SDS011;16323;51.130;6.612;2023-05-17T13:54:50;2.15;;;0.47;;
29320;SDS011;16323;51.130;6.612;2023-05-17T13:57:17;3.45;;;0.60;;
29320;SDS011;16323;51.130;6.612;2023-05-17T13:59:44;4.95;;;1.17;;
29320;SDS011;16323;51.130;6.612;2023-05-17T14:02:11;4.72;;;0.80;;
29320;SDS011;16323;51.130;6.612;2023-05-17T14:04:39;6.65;;;0.82;;
29320;SDS011;16323;51.130;6.612;2023-05-17T14:07:05;2.63;;;0.80;;
29320;SDS011;16323;51.130;6.612;2023-05-17T14:09:32;1.67;;;0.63;;
29320;SDS011;16323;51.130;6.612;2023-05-17T14:12:00;1.77;;;0.70;;
29320;SDS011;16323;51.130;6.612;2023-05-17T14:14:28;2.88;;;0.85;;
29320;SDS011;16323;51.130;6.612;2023-05-17T14:16:55;1.77;;;0.63;;
29320;SDS011;16323;51.130;6.612;2023-05-17T14:19:22;2.08;;;0.75;;
29320;SDS011;16323;51.130;6.612;2023-05-17T14:21:50;2.50;;;0.80;;
29320;SDS011;16323;51.130;6.612;2023-05-17T14:24:17;1.75;;;0.60;;
29320;SDS011;16323;51.130;6.612;2023-05-17T14:26:43;2.20;;;0.60;;
29320;SDS011;16323;51.130;6.612;2023-05-17T14:29:10;1.98;;;0.65;;
29320;SDS011;16323;51.130;6.612;2023-05-17T14:31:37;1.30;;;0.60;;
29320;SDS011;16323;51.130;6.612;2023-05-17T14:34:04;2.22;;;0.55;;
29320;SDS011;16323;51.130;6.612;2023-05-17T14:36:31;1.63;;;0.57;;
29320;SDS011;16323;51.130;6.612;2023-05-17T14:39:01;3.80;;;0.95;;
29320;SDS011;16323;51.130;6.612;2023-05-17T14:41:29;1.83;;;0.45;;
29320;SDS011;16323;51.130;6.612;2023-05-17T14:43:56;1.42;;;0.47;;
29320;SDS011;16323;51.130;6.612;2023-05-17T14:46:23;2.97;;;0.70;;
29320;SDS011;16323;51.130;6.612;2023-05-17T14:48:50;1.45;;;0.50;;
29320;SDS011;16323;51.130;6.612;2023-05-17T14:51:17;1.23;;;0.50;;
29320;SDS011;16323;51.130;6.612;2023-05-17T14:53:43;1.10;;;0.40;;
29320;SDS011;16323;51.130;6.612;2023-05-17T14:56:11;2.38;;;0.70;;
29320;SDS011;16323;51.130;6.612;2023-05-17T14:58:39;1.83;;;0.73;;